CYZG

Salluit Airport

Salluit, Quebec, Canada
METAR CYZG 181900Z 20015KT 15SM BKN050 03/M10 A3018 RMK SC6 LAST STFD OBS/NEXT191200 UTC SLP240
Observed Flight Rules
Sep-18 @ 19:00 UTC (11 hours ago) Visual Flight Rules
Wind Visibility Clouds
200° at 15 knots 15 miles
  • Broken at 5,000' AGL
Temperatures Readings
Current 3°C / 37°F
Dewpoint -10°C / 14°F
Humidity 38%
Altimeter 30.18" Hg
Pressure 1024 hPa
Elevation 226
METAR CYZG 181900Z 20015KT 15SM BKN050 03/M10 A3018 RMK SC6 LAST STFD OBS/NEXT191200 UTC SLP240
Observed Flight Rules
Sep-18 @ 19:00 UTC
(11 hours ago)
VFR
Wind Visibility
200° at 15 knots 15 miles
Clouds
  • Broken at 5,000' AGL
Temperature Dewpoint
3°C / 37°F -10°C / 14°F
Humidity Altimeter Pressure
38% 30.18" Hg 1024 hPa